Elgin, MN (55932)

10:28 AM CST on March 01, 2015 (GMT -0600)
NE Rochester | Change Station
CLOSE
Current Station
Personal Weather Station
Location: Rochester, MN
Elevation: 1060 ft
Nearby Weather Stations

Elev 1060 ft 44.05 °N, 92.45 °W | Updated 16 seconds ago

Overcast
Overcast
18.8 °F
Feels Like 12 °F
N
5.0
Wind Variable Wind from WSW
Gusts 14.0 mph

Today
High -- | Low -- °F
--% Chance of Precip.
Yesterday
High -- | Low -- °F
Precip. -- in
6:46 AM 5:57 PM
Waxing Gibbous, 86% visible
Pressure 30.26 in
Visibility 10.0 miles
Clouds Mostly Cloudy 900 ft
Windchill 12 °F
Dew Point 14 °F
Humidity 82%
Rainfall 0.00 in
Snow Depth Not available.
UV 2 out of 12
Pollen .40 out of 12
Air Quality Not available.
Flu Activity Not available.
METAR K9MN 011613Z AUTO 25015G20KT 10SM BKN009 M07/M11 A3026 RMK AO1 T10721111

More Conditions Fewer Conditions

Pressure 30.26 in
Visibility 10.0 miles
Clouds Mostly Cloudy 900 ft
Windchill 12 °F
Dew Point 14 °F
Humidity 82%
Rainfall 0.00 in
Snow Depth Not available.
UV 2 out of 12
Pollen .40 out of 12
Air Quality Not available.
Flu Activity Not available.
METAR K9MN 011613Z AUTO 25015G20KT 10SM BKN009 M07/M11 A3026 RMK AO1 T10721111

More Conditions Fewer Conditions

10-Day Weather Forecast

Almanac

Astronomy

Mar. 01, 2015 Rise Set
Actual Time
Civil Twilight
Nautical Twilight
Astronomical Twilight
Moon
Length of Visible Light
Length of Day
Tomorrow will be .
, % of the Moon is Illuminated

Today's Extremes

State Highs State Lows

Community

WunderPhotos

Upload Photos

1,801,446 photos uploaded!

WunderBlogs® & News

Nearby

Air Quality

  Air Quality AQ Index Pollutant
Not available.

Snow Depth

Station Depth Elevation

Earthquake Activity

City Distance Mag. Time & Date
Minimum magnitude displayed is 2.5.

Coastal Water Temperatures

Place Temperature

Nearby Weather Stations